createdAt,value
2018-07-28T00:02:08.964Z,80.40
2018-07-28T00:04:37.054Z,80.20
2018-07-28T00:07:05.138Z,80.10
2018-07-28T00:09:33.240Z,80.30
2018-07-28T00:12:01.315Z,80.00
2018-07-28T00:14:29.439Z,80.30
2018-07-28T00:16:57.555Z,80.70
2018-07-28T00:19:25.603Z,80.90
2018-07-28T00:21:53.663Z,81.50
2018-07-28T00:24:21.791Z,82.10
2018-07-28T00:29:17.734Z,82.50
2018-07-28T00:31:45.880Z,83.00
2018-07-28T00:34:13.950Z,82.50
2018-07-28T00:36:42.020Z,82.70
2018-07-28T00:39:12.395Z,83.20
2018-07-28T00:41:40.518Z,84.20
2018-07-28T00:44:08.691Z,84.00
2018-07-28T00:46:36.994Z,84.30
2018-07-28T00:49:05.724Z,85.30
2018-07-28T00:51:33.900Z,85.40
2018-07-28T00:54:01.971Z,85.30
2018-07-28T00:56:30.103Z,84.30
2018-07-28T00:58:58.204Z,85.00
2018-07-28T01:01:26.267Z,85.90
2018-07-28T01:03:54.348Z,85.40
2018-07-28T01:06:22.426Z,85.90
2018-07-28T01:08:50.575Z,86.50
2018-07-28T01:11:18.656Z,86.00
2018-07-28T01:13:46.772Z,86.40
2018-07-28T01:16:14.872Z,86.60
2018-07-28T01:18:42.979Z,86.70
2018-07-28T01:21:11.072Z,87.20
2018-07-28T01:23:39.142Z,88.00
2018-07-28T01:26:07.222Z,88.00
2018-07-28T01:28:35.311Z,88.00
2018-07-28T01:31:03.386Z,87.80
2018-07-28T01:33:31.467Z,89.00
2018-07-28T01:35:59.551Z,87.10
2018-07-28T01:38:27.610Z,86.40
2018-07-28T01:40:56.035Z,86.90
2018-07-28T01:43:24.092Z,86.60
2018-07-28T01:45:52.152Z,87.20
2018-07-28T01:48:20.263Z,87.40
2018-07-28T01:50:48.375Z,87.10
2018-07-28T01:53:16.464Z,87.30
2018-07-28T01:55:44.535Z,87.60
2018-07-28T01:58:12.615Z,87.80
2018-07-28T02:00:40.674Z,87.40
2018-07-28T02:03:08.746Z,87.70
2018-07-28T02:05:36.839Z,87.60
2018-07-28T02:08:05.251Z,86.80
2018-07-28T02:10:33.307Z,86.50
2018-07-28T02:13:01.400Z,86.60
2018-07-28T02:15:29.499Z,86.80
2018-07-28T02:17:57.567Z,87.40
2018-07-28T02:20:25.670Z,88.00
2018-07-28T02:22:53.820Z,88.70
2018-07-28T02:25:21.930Z,88.50
2018-07-28T02:27:49.983Z,88.60
2018-07-28T02:30:18.047Z,88.10
2018-07-28T02:32:46.140Z,89.20
2018-07-28T02:35:14.192Z,88.90
2018-07-28T02:37:42.261Z,87.70
2018-07-28T02:40:10.621Z,87.70
2018-07-28T02:42:38.737Z,88.10
2018-07-28T02:45:07.331Z,88.00
2018-07-28T02:47:35.395Z,88.30
2018-07-28T02:50:03.919Z,88.60
2018-07-28T02:52:32.008Z,88.90
2018-07-28T02:55:00.075Z,88.70
2018-07-28T02:57:28.282Z,89.10
2018-07-28T02:59:56.349Z,89.20
2018-07-28T03:02:24.453Z,88.50
2018-07-28T03:04:52.542Z,88.60
2018-07-28T03:07:20.635Z,89.00
2018-07-28T03:09:48.743Z,89.70
2018-07-28T03:12:16.811Z,89.70
2018-07-28T03:14:44.899Z,90.60
2018-07-28T03:17:12.989Z,90.90
2018-07-28T03:19:41.072Z,90.70
2018-07-28T03:22:09.159Z,91.10
2018-07-28T03:24:37.267Z,91.30
2018-07-28T03:27:05.703Z,91.10
2018-07-28T03:29:33.868Z,91.20
2018-07-28T03:32:02.061Z,92.20
2018-07-28T03:34:30.174Z,92.20
2018-07-28T03:36:58.231Z,92.50
2018-07-28T03:39:26.339Z,92.30
2018-07-28T03:41:54.411Z,93.20
2018-07-28T03:44:22.688Z,92.90
2018-07-28T03:46:50.771Z,92.20
2018-07-28T03:49:18.852Z,91.30
2018-07-28T03:51:46.932Z,90.80
2018-07-28T03:54:14.996Z,91.00
2018-07-28T03:56:43.103Z,90.50
2018-07-28T03:59:11.218Z,90.00
2018-07-28T04:01:39.271Z,89.50
2018-07-28T04:04:07.360Z,88.90
2018-07-28T04:06:35.441Z,88.40
2018-07-28T04:09:05.896Z,87.80
2018-07-28T04:11:33.983Z,87.10
2018-07-28T04:14:02.072Z,88.10
2018-07-28T04:16:30.185Z,87.90
2018-07-28T04:18:58.261Z,87.90
2018-07-28T04:21:26.343Z,88.30
2018-07-28T04:23:54.415Z,89.00
2018-07-28T04:26:22.478Z,89.60
2018-07-28T04:28:50.576Z,89.40
2018-07-28T04:31:18.683Z,89.60
2018-07-28T04:33:46.767Z,88.80
2018-07-28T04:36:14.886Z,87.90
2018-07-28T04:38:42.937Z,88.40
2018-07-28T04:41:11.087Z,88.00
2018-07-28T04:43:39.186Z,87.60
2018-07-28T04:46:07.347Z,87.70
2018-07-28T04:48:35.408Z,87.00
2018-07-28T04:51:03.512Z,86.40
2018-07-28T04:53:31.607Z,84.70
2018-07-28T04:55:59.689Z,85.10
2018-07-28T04:58:27.797Z,81.60
2018-07-28T05:03:23.737Z,76.60
2018-07-28T05:05:51.815Z,73.50
2018-07-28T05:08:19.903Z,71.20
2018-07-28T05:10:48.031Z,68.10
2018-07-28T05:13:16.107Z,67.20
2018-07-28T05:15:44.187Z,69.30
2018-07-28T05:18:12.299Z,65.20
2018-07-28T05:20:40.360Z,65.50
2018-07-28T05:23:08.465Z,62.20
2018-07-28T05:25:36.557Z,66.40
2018-07-28T05:28:04.657Z,61.60
2018-07-28T05:30:32.751Z,62.80
2018-07-28T05:33:00.823Z,59.40
2018-07-28T05:35:28.904Z,55.50
2018-07-28T05:37:56.992Z,54.70
2018-07-28T05:40:25.079Z,51.70
2018-07-28T05:42:53.163Z,54.00
2018-07-28T05:45:21.251Z,51.00
2018-07-28T05:47:49.315Z,50.30
2018-07-28T05:50:17.431Z,47.10
2018-07-28T05:52:45.604Z,46.50
2018-07-28T05:55:13.659Z,45.20
2018-07-28T05:57:41.739Z,43.10
2018-07-28T06:00:09.847Z,42.30
2018-07-28T06:02:37.979Z,40.50
2018-07-28T06:05:06.416Z,38.50
2018-07-28T06:07:34.499Z,38.70
2018-07-28T06:10:02.594Z,36.70
2018-07-28T06:12:30.691Z,34.30
2018-07-28T06:14:58.764Z,34.60
2018-07-28T06:17:26.865Z,32.30
2018-07-28T06:19:55.017Z,31.20
2018-07-28T06:22:23.079Z,31.30
2018-07-28T06:24:51.155Z,29.80
2018-07-28T06:27:19.308Z,28.70
2018-07-28T06:29:47.395Z,28.20
2018-07-28T06:32:15.479Z,28.20
2018-07-28T06:34:43.572Z,27.30
2018-07-28T06:37:11.643Z,26.60
2018-07-28T06:39:39.735Z,26.30
2018-07-28T06:42:07.792Z,25.80
2018-07-28T06:44:35.862Z,24.60
2018-07-28T06:47:03.951Z,21.60
2018-07-28T06:49:31.996Z,23.10
2018-07-28T06:52:00.052Z,20.90
2018-07-28T06:54:28.192Z,19.20
2018-07-28T06:56:56.256Z,17.70
2018-07-28T06:59:24.349Z,16.10
2018-07-28T07:01:52.439Z,15.80
2018-07-28T07:04:20.510Z,15.60
2018-07-28T07:06:48.568Z,12.60
2018-07-28T07:09:16.662Z,10.10
2018-07-28T07:11:44.807Z,8.40
2018-07-28T07:14:12.884Z,7.50
2018-07-28T07:16:40.956Z,7.40
2018-07-28T07:19:09.008Z,7.00
2018-07-28T07:21:37.116Z,5.80
2018-07-28T07:24:05.174Z,6.00
2018-07-28T07:26:33.247Z,5.30
2018-07-28T07:29:01.382Z,5.50
2018-07-28T07:31:29.467Z,4.70
2018-07-28T07:33:57.514Z,4.00
2018-07-28T07:36:25.580Z,3.60
2018-07-28T07:38:53.659Z,2.10
2018-07-28T07:41:21.743Z,2.70
2018-07-28T07:43:49.831Z,3.40
2018-07-28T07:46:17.923Z,3.50
2018-07-28T07:48:46.596Z,2.60
2018-07-28T07:51:14.766Z,4.00
2018-07-28T07:53:42.856Z,3.40
2018-07-28T07:56:10.915Z,2.00
2018-07-28T07:58:38.975Z,1.70
2018-07-28T08:01:07.047Z,2.40
2018-07-28T08:03:35.116Z,3.00
2018-07-28T08:06:03.199Z,2.50
2018-07-28T08:08:31.310Z,3.20
2018-07-28T08:10:59.395Z,3.20
2018-07-28T08:13:27.462Z,1.00
2018-07-28T08:15:55.526Z,1.80
2018-07-28T08:18:23.602Z,1.00
2018-07-28T08:20:51.732Z,1.00
2018-07-28T08:23:21.839Z,1.00
2018-07-28T08:25:50.016Z,1.00
2018-07-28T08:28:18.966Z,1.10
2018-07-28T08:30:47.029Z,1.00
2018-07-28T08:33:15.169Z,1.00
2018-07-28T08:35:43.249Z,1.00
2018-07-28T08:38:11.320Z,1.00
2018-07-28T08:40:39.372Z,1.00
2018-07-28T08:43:07.809Z,1.00
2018-07-28T08:45:35.900Z,1.00
2018-07-28T08:48:03.979Z,1.00
2018-07-28T08:50:32.040Z,1.00
2018-07-28T08:53:00.149Z,1.00
2018-07-28T08:55:28.208Z,1.00
2018-07-28T08:57:56.253Z,1.00
2018-07-28T09:00:24.366Z,1.00
2018-07-28T09:02:52.456Z,1.00
2018-07-28T09:05:21.356Z,1.00
2018-07-28T09:07:49.483Z,1.00
2018-07-28T09:10:18.252Z,1.00
2018-07-28T09:12:46.336Z,1.00
2018-07-28T09:15:14.468Z,1.00
2018-07-28T09:17:42.576Z,1.00
2018-07-28T09:20:10.637Z,1.00
2018-07-28T09:22:39.026Z,1.00
2018-07-28T09:25:07.699Z,1.00
2018-07-28T09:27:35.759Z,1.00
2018-07-28T09:30:04.364Z,1.00
2018-07-28T09:32:32.457Z,1.00
2018-07-28T09:35:00.507Z,1.00
2018-07-28T09:37:28.576Z,1.00
2018-07-28T09:39:56.624Z,1.00
2018-07-28T09:42:24.692Z,1.00
2018-07-28T09:44:52.866Z,1.00
2018-07-28T09:47:20.937Z,1.00
2018-07-28T09:49:49.003Z,1.00
2018-07-28T09:52:17.083Z,1.00
2018-07-28T09:54:45.176Z,1.00
2018-07-28T09:57:13.227Z,1.00
2018-07-28T09:59:41.315Z,1.00
2018-07-28T10:02:09.363Z,1.00
2018-07-28T10:04:37.427Z,1.00
2018-07-28T10:07:05.516Z,1.00
2018-07-28T10:09:33.579Z,1.00
2018-07-28T10:12:01.651Z,1.00
2018-07-28T10:14:29.735Z,1.00
2018-07-28T10:16:57.795Z,1.00
2018-07-28T10:19:25.853Z,1.00
2018-07-28T10:21:53.943Z,1.00
2018-07-28T10:24:22.015Z,1.00
2018-07-28T10:26:50.071Z,1.00
2018-07-28T10:29:18.147Z,1.00
2018-07-28T10:31:46.219Z,1.00
2018-07-28T10:34:14.277Z,1.00
2018-07-28T10:36:42.605Z,1.00
2018-07-28T10:39:12.897Z,1.00
2018-07-28T10:41:41.010Z,1.00
2018-07-28T10:44:09.117Z,1.00
2018-07-28T10:46:37.168Z,1.00
2018-07-28T10:49:05.284Z,1.00
2018-07-28T10:51:33.427Z,1.00
2018-07-28T10:54:01.499Z,1.00
2018-07-28T10:56:29.551Z,1.00
2018-07-28T10:58:57.652Z,1.00
2018-07-28T11:01:25.707Z,1.00
2018-07-28T11:03:53.756Z,1.00
2018-07-28T11:06:21.830Z,1.00
2018-07-28T11:08:49.899Z,1.00
2018-07-28T11:11:17.942Z,1.00
2018-07-28T11:13:46.047Z,1.00
2018-07-28T11:16:14.107Z,1.00
2018-07-28T11:18:42.187Z,1.00
2018-07-28T11:21:10.248Z,1.00
2018-07-28T11:23:49.985Z,1.00
2018-07-28T11:26:18.119Z,1.00
2018-07-28T11:28:46.121Z,1.00
2018-07-28T11:31:25.680Z,1.00
2018-07-28T11:34:05.239Z,1.00
2018-07-28T11:36:44.723Z,1.00
2018-07-28T11:40:25.956Z,1.60
2018-07-28T11:43:05.636Z,1.20
2018-07-28T11:45:33.687Z,1.10
2018-07-28T11:48:01.784Z,2.70
2018-07-28T11:50:29.859Z,3.10
2018-07-28T11:52:57.903Z,3.40
2018-07-28T11:55:26.004Z,4.00
2018-07-28T11:57:54.069Z,4.40
2018-07-28T12:00:22.107Z,4.90
2018-07-28T12:02:50.194Z,5.50
2018-07-28T12:05:18.256Z,5.80
2018-07-28T12:07:46.320Z,6.40
2018-07-28T12:10:14.395Z,6.60
2018-07-28T12:12:42.456Z,6.80
2018-07-28T12:15:10.840Z,6.80
2018-07-28T12:17:38.951Z,6.30
2018-07-28T12:20:07.171Z,6.50
2018-07-28T12:22:35.271Z,6.20
2018-07-28T12:25:03.328Z,6.40
2018-07-28T12:27:31.396Z,7.10
2018-07-28T12:29:59.482Z,6.30
2018-07-28T12:32:27.523Z,6.30
2018-07-28T12:34:55.660Z,7.40
2018-07-28T12:37:23.706Z,7.10
2018-07-28T12:39:51.747Z,7.10
2018-07-28T12:42:19.832Z,7.50
2018-07-28T12:44:47.902Z,6.70
2018-07-28T12:47:15.948Z,7.00
2018-07-28T12:49:44.024Z,8.00
2018-07-28T12:52:12.136Z,7.80
2018-07-28T12:54:40.598Z,7.20
2018-07-28T12:57:08.652Z,7.20
2018-07-28T12:59:36.776Z,8.30
2018-07-28T13:02:04.810Z,7.70
2018-07-28T13:04:32.917Z,7.70
2018-07-28T13:07:00.994Z,7.70
2018-07-28T13:09:29.058Z,8.40
2018-07-28T13:11:57.167Z,8.70
2018-07-28T13:14:25.314Z,9.20
2018-07-28T13:16:53.406Z,9.20
2018-07-28T13:19:21.599Z,9.10
2018-07-28T13:21:49.671Z,7.60
2018-07-28T13:24:17.740Z,7.30
2018-07-28T13:26:45.900Z,7.20
2018-07-28T13:29:14.023Z,7.40
2018-07-28T13:31:42.119Z,7.20
2018-07-28T13:34:10.255Z,8.10
2018-07-28T13:36:38.327Z,7.00
2018-07-28T13:39:07.451Z,7.20
2018-07-28T13:41:36.024Z,7.40
2018-07-28T13:44:04.139Z,7.90
2018-07-28T13:46:32.235Z,7.70
2018-07-28T13:49:00.364Z,8.20
2018-07-28T13:51:28.395Z,8.10
2018-07-28T13:53:56.435Z,8.50
2018-07-28T13:56:24.531Z,7.50
2018-07-28T13:58:52.615Z,7.60
2018-07-28T14:01:20.699Z,7.30
2018-07-28T14:03:48.780Z,8.50
2018-07-28T14:06:16.880Z,7.40
2018-07-28T14:08:45.004Z,8.00
2018-07-28T14:11:13.087Z,8.20
2018-07-28T14:13:41.200Z,8.20
2018-07-28T14:16:09.313Z,8.10
2018-07-28T14:18:37.395Z,7.40
2018-07-28T14:21:05.455Z,8.10
2018-07-28T14:23:33.519Z,8.00
2018-07-28T14:26:01.593Z,8.70
2018-07-28T14:28:29.648Z,8.50
2018-07-28T14:30:57.706Z,9.10
2018-07-28T14:33:25.820Z,9.20
2018-07-28T14:35:53.916Z,8.90
2018-07-28T14:38:21.987Z,7.50
2018-07-28T14:40:50.074Z,6.60
2018-07-28T14:43:18.130Z,3.80
2018-07-28T14:45:46.276Z,2.00
2018-07-28T14:48:14.283Z,1.00
2018-07-28T14:50:42.349Z,1.00
2018-07-28T14:53:11.338Z,1.00
2018-07-28T14:55:39.418Z,1.00
2018-07-28T14:58:07.483Z,1.00
2018-07-28T15:00:35.600Z,1.00
2018-07-28T15:03:03.656Z,1.00
2018-07-28T15:05:31.726Z,1.00
2018-07-28T15:07:59.815Z,1.20
2018-07-28T15:10:27.883Z,1.00
2018-07-28T15:12:55.944Z,1.00
2018-07-28T15:15:24.069Z,1.00
2018-07-28T15:17:52.162Z,1.00
2018-07-28T15:20:20.247Z,1.20
2018-07-28T15:22:48.343Z,1.00
2018-07-28T15:25:16.415Z,1.40
2018-07-28T15:27:44.627Z,1.50
2018-07-28T15:30:12.700Z,1.40
2018-07-28T15:32:40.799Z,1.20
2018-07-28T15:35:08.912Z,1.90
2018-07-28T15:37:36.982Z,1.40
2018-07-28T15:40:05.076Z,1.60
2018-07-28T15:42:33.255Z,2.20
2018-07-28T15:45:01.324Z,2.00
2018-07-28T15:47:29.397Z,3.10
2018-07-28T15:49:57.471Z,2.30
2018-07-28T15:52:25.642Z,2.70
2018-07-28T15:54:53.855Z,2.90
2018-07-28T15:57:21.943Z,2.50
2018-07-28T15:59:49.995Z,3.00
2018-07-28T16:02:18.071Z,3.10
2018-07-28T16:04:46.247Z,3.30
2018-07-28T16:07:14.370Z,3.50
2018-07-28T16:09:42.438Z,3.70
2018-07-28T16:12:10.551Z,3.80
2018-07-28T16:14:38.655Z,3.70
2018-07-28T16:17:06.755Z,4.70
2018-07-28T16:19:34.861Z,4.20
2018-07-28T16:22:02.907Z,3.50
2018-07-28T16:24:30.959Z,4.20
2018-07-28T16:26:59.055Z,4.50
2018-07-28T16:29:27.102Z,6.00
2018-07-28T16:31:57.592Z,6.90
2018-07-28T16:34:25.679Z,5.30
2018-07-28T16:36:53.747Z,5.30
2018-07-28T16:39:21.821Z,5.40
2018-07-28T16:41:49.932Z,5.60
2018-07-28T16:44:18.010Z,8.00
2018-07-28T16:46:46.072Z,7.90
2018-07-28T16:49:14.155Z,9.90
2018-07-28T16:51:42.223Z,7.70
2018-07-28T16:54:10.307Z,6.60
2018-07-28T16:56:38.388Z,11.80
2018-07-28T16:59:06.458Z,11.10
2018-07-28T17:01:34.503Z,8.90
2018-07-28T17:04:02.607Z,8.70
2018-07-28T17:06:30.715Z,8.70
2018-07-28T17:08:58.828Z,9.70
2018-07-28T17:11:26.871Z,9.00
2018-07-28T17:13:54.961Z,9.20
2018-07-28T17:16:23.039Z,8.00
2018-07-28T17:18:51.086Z,4.40
2018-07-28T17:21:19.191Z,4.50
2018-07-28T17:23:47.358Z,5.10
2018-07-28T17:26:15.455Z,4.50
2018-07-28T17:28:43.663Z,5.10
2018-07-28T17:31:11.773Z,5.40
2018-07-28T17:33:39.852Z,5.80
2018-07-28T17:36:07.996Z,5.60
2018-07-28T17:38:36.061Z,6.10
2018-07-28T17:41:04.212Z,6.30
2018-07-28T17:43:32.307Z,6.50
2018-07-28T17:46:00.443Z,6.90
2018-07-28T17:48:28.531Z,7.20
2018-07-28T17:50:56.620Z,7.70
2018-07-28T17:53:24.791Z,8.20
2018-07-28T17:55:52.849Z,8.50
2018-07-28T17:58:21.093Z,8.80
2018-07-28T18:00:49.251Z,9.50
2018-07-28T18:03:17.364Z,9.70
2018-07-28T18:05:45.511Z,9.10
2018-07-28T18:08:13.607Z,9.20
2018-07-28T18:10:41.698Z,8.40
2018-07-28T18:13:09.831Z,9.10
2018-07-28T18:15:37.938Z,8.60
2018-07-28T18:18:06.012Z,8.90
2018-07-28T18:20:34.063Z,9.50
2018-07-28T18:23:02.207Z,10.20
2018-07-28T18:25:30.283Z,9.40
2018-07-28T18:27:58.375Z,9.80
2018-07-28T18:30:26.462Z,9.70
2018-07-28T18:32:54.599Z,10.70
2018-07-28T18:35:22.815Z,10.90
2018-07-28T18:37:50.926Z,11.80
2018-07-28T18:40:19.003Z,12.30
2018-07-28T18:42:47.068Z,13.10
2018-07-28T18:45:15.214Z,13.90
2018-07-28T18:47:43.331Z,13.70
2018-07-28T18:50:11.435Z,14.90
2018-07-28T18:52:39.571Z,14.70
2018-07-28T18:55:07.746Z,16.10
2018-07-28T18:57:35.842Z,16.50
2018-07-28T19:00:05.612Z,16.60
2018-07-28T19:02:33.683Z,17.00
2018-07-28T19:05:01.767Z,18.40
2018-07-28T19:09:57.806Z,18.20
2018-07-28T19:12:31.329Z,18.60
2018-07-28T19:14:59.515Z,18.40
2018-07-28T19:17:33.115Z,18.80
2018-07-28T19:20:01.233Z,19.80
2018-07-28T19:22:34.682Z,20.80
2018-07-28T19:25:02.754Z,23.10
2018-07-28T19:27:30.815Z,25.00
2018-07-28T19:29:58.919Z,25.20
2018-07-28T19:32:26.955Z,25.50
2018-07-28T19:34:55.023Z,26.00
2018-07-28T19:37:24.561Z,27.00
2018-07-28T19:39:52.680Z,27.00
2018-07-28T19:42:26.293Z,27.30
2018-07-28T19:44:54.371Z,27.50
2018-07-28T19:47:22.443Z,27.40
2018-07-28T19:49:50.571Z,28.00
2018-07-28T19:52:18.639Z,28.10
2018-07-28T19:54:46.711Z,28.40
2018-07-28T19:57:14.796Z,30.50
2018-07-28T19:59:42.889Z,30.10
2018-07-28T20:02:10.959Z,30.10
2018-07-28T20:04:39.074Z,30.80
2018-07-28T20:07:07.199Z,31.50
2018-07-28T20:09:35.271Z,32.50
2018-07-28T20:12:03.369Z,32.30
2018-07-28T20:14:31.467Z,32.60
2018-07-28T20:16:59.583Z,31.90
2018-07-28T20:19:27.667Z,32.50
2018-07-28T20:21:55.739Z,31.50
2018-07-28T20:24:23.811Z,33.10
2018-07-28T20:26:51.967Z,34.00
2018-07-28T20:29:20.039Z,33.50
2018-07-28T21:15:29.471Z,32.00
2018-07-28T21:17:59.159Z,36.70
2018-07-28T21:20:27.247Z,37.70
2018-07-28T21:22:55.319Z,38.40
2018-07-28T21:25:23.371Z,37.40
2018-07-28T21:27:51.442Z,37.60
2018-07-28T21:31:22.596Z,37.60
2018-07-28T21:33:50.675Z,37.40
2018-07-28T21:38:46.694Z,36.20
2018-07-28T21:41:14.759Z,35.60
2018-07-28T21:43:42.818Z,36.10
2018-07-28T21:46:10.910Z,36.70
2018-07-28T21:48:38.983Z,36.50
2018-07-28T21:51:07.068Z,36.30
2018-07-28T21:53:35.144Z,36.90
2018-07-28T21:56:03.231Z,37.20
2018-07-28T21:58:31.305Z,36.80
2018-07-28T22:01:05.948Z,37.00
2018-07-28T22:03:34.240Z,37.70
2018-07-28T22:06:02.384Z,36.80
2018-07-28T22:08:30.467Z,38.00
2018-07-28T22:10:58.628Z,38.20
2018-07-28T22:13:26.952Z,37.90
2018-07-28T22:15:55.036Z,38.20
2018-07-28T22:18:23.141Z,38.50
2018-07-28T22:20:51.195Z,39.10
2018-07-28T22:23:19.320Z,38.50
2018-07-28T22:25:47.391Z,40.00
2018-07-28T22:28:15.479Z,40.00
2018-07-28T22:30:43.574Z,40.50
2018-07-28T22:33:11.642Z,40.80
2018-07-28T22:35:39.698Z,39.50
2018-07-28T22:38:07.783Z,39.90
2018-07-28T22:40:35.900Z,41.00
2018-07-28T22:43:03.991Z,40.80
2018-07-28T22:45:32.088Z,42.20
2018-07-28T22:48:00.144Z,42.00
2018-07-28T22:50:28.226Z,43.00
2018-07-28T22:52:56.303Z,42.40
2018-07-28T22:55:24.362Z,42.60
2018-07-28T22:57:52.410Z,43.80
2018-07-28T23:00:20.648Z,45.00
2018-07-28T23:02:48.727Z,45.70
2018-07-28T23:05:16.797Z,52.30
2018-07-28T23:07:44.884Z,51.10
2018-07-28T23:10:12.958Z,49.80
2018-07-28T23:12:41.031Z,50.00
2018-07-28T23:15:09.127Z,50.20
2018-07-28T23:17:37.196Z,52.00
2018-07-28T23:20:05.419Z,54.00
2018-07-28T23:22:33.506Z,55.70
2018-07-28T23:25:01.560Z,56.70
2018-07-28T23:27:29.787Z,57.20
2018-07-28T23:29:57.843Z,57.20
2018-07-28T23:32:25.907Z,57.50
2018-07-28T23:34:54.001Z,57.50
2018-07-28T23:37:22.077Z,58.00
2018-07-28T23:39:50.147Z,57.30
2018-07-28T23:42:18.262Z,58.70
2018-07-28T23:44:46.331Z,58.40
2018-07-28T23:47:14.420Z,59.10
2018-07-28T23:49:42.519Z,59.50
2018-07-28T23:52:10.593Z,59.40
2018-07-28T23:54:38.773Z,59.70
2018-07-28T23:57:06.823Z,59.80
2018-07-28T23:59:34.936Z,61.20
